Time;durP1;ratioP1;P1;durP2;ratioP2;P2;SDS_P1;SDS_P2;PMS_P1;PMS_P2;Temp;Humidity;BMP_temperature;BMP_pressure;BME280_temperature;BME280_humidity;BME280_pressure;Samples;Min_cycle;Max_cycle;Signal;HPM_P1;HPM_P2
2023/05/18 00:00:20;;;;;;;;;;;7.90;99.90;;;;;;21011836;28;19908;-79
2023/05/18 00:10:20;;;;;;;;;;;7.80;99.90;;;;;;21010082;22;20410;-75
2023/05/18 00:20:21;;;;;;;;;;;7.70;99.90;;;;;;20959869;28;19912;-75
2023/05/18 00:30:24;;;;;;;;;;;7.60;99.90;;;;;;20937987;28;19942;-75
2023/05/18 00:40:26;;;;;;;;;;;7.60;99.90;;;;;;20937783;28;19915;-75
2023/05/18 00:50:27;;;;;;;;;;;7.50;99.90;;;;;;20939045;28;19923;-75
2023/05/18 01:00:27;;;;;;;;;;;7.30;99.90;;;;;;20953277;28;20283;-75
2023/05/18 01:10:29;;;;;;;;;;;7.00;99.90;;;;;;20948102;28;19919;-75
2023/05/18 01:20:32;;;;;;;;;;;6.80;99.90;;;;;;20932821;28;19908;-75
2023/05/18 01:30:34;;;;;;;;;;;6.90;99.90;;;;;;20948673;28;20086;-75
2023/05/18 01:40:58;;;;;;;;;;;7.00;99.90;;;;;;20929631;28;19933;-75
2023/05/18 01:50:59;;;;;;;;;;;7.20;99.90;;;;;;20956382;28;19912;-75
2023/05/18 02:01:00;;;;;;;;;;;6.90;99.90;;;;;;20932245;28;19908;-75
2023/05/18 02:11:00;;;;;;;;;;;6.80;99.90;;;;;;20946212;28;20002;-75
2023/05/18 02:21:02;;;;;;;;;;;7.10;99.90;;;;;;20945679;28;20004;-75
2023/05/18 02:31:06;;;;;;;;;;;7.00;99.90;;;;;;20954968;28;19916;-74
2023/05/18 02:41:07;;;;;;;;;;;7.20;99.90;;;;;;20959040;28;19916;-75
2023/05/18 02:51:08;;;;;;;;;;;7.20;99.90;;;;;;20944990;28;19913;-75
2023/05/18 03:01:11;;;;;;;;;;;7.20;99.90;;;;;;20899843;28;19915;-76
2023/05/18 03:11:16;;;;;;;;;;;7.20;99.90;;;;;;20880397;28;19924;-75
2023/05/18 03:21:18;;;;;;;;;;;7.20;99.90;;;;;;20892522;28;19908;-75
2023/05/18 03:31:19;;;;;;;;;;;7.10;99.90;;;;;;20910760;28;19913;-78
2023/05/18 03:41:20;;;;;;;;;;;7.00;99.90;;;;;;20893009;28;19916;-78
2023/05/18 03:51:22;;;;;;;;;;;7.20;99.90;;;;;;20900726;28;19951;-80
2023/05/18 04:01:23;;;;;;;;;;;7.20;99.90;;;;;;20918262;28;19916;-80
2023/05/18 04:11:25;;;;;;;;;;;7.20;99.90;;;;;;20916852;28;19923;-77
2023/05/18 04:21:25;;;;;;;;;;;7.30;99.90;;;;;;20904406;28;20364;-76
2023/05/18 04:31:26;;;;;;;;;;;7.40;99.90;;;;;;20900631;28;20007;-76
2023/05/18 04:41:27;;;;;;;;;;;7.50;99.90;;;;;;20906455;28;19912;-76
2023/05/18 04:51:28;;;;;;;;;;;7.80;99.90;;;;;;20916891;28;19913;-76
2023/05/18 05:01:29;;;;;;;;;;;8.10;99.90;;;;;;20898904;28;19908;-76
2023/05/18 05:11:30;;;;;;;;;;;8.50;99.90;;;;;;20898120;28;19919;-76
2023/05/18 05:21:31;;;;;;;;;;;8.60;99.90;;;;;;20897682;28;19923;-76
2023/05/18 05:31:33;;;;;;;;;;;8.80;99.90;;;;;;20891346;28;19916;-75
2023/05/18 05:41:34;;;;;;;;;;;8.90;99.90;;;;;;20889137;28;20240;-76
2023/05/18 05:51:35;;;;;;;;;;;9.00;99.90;;;;;;20890467;28;19913;-76
2023/05/18 06:01:36;;;;;;;;;;;9.00;99.90;;;;;;20878114;28;20390;-76
2023/05/18 06:11:36;;;;;;;;;;;9.00;99.90;;;;;;20911583;28;19916;-76
2023/05/18 06:21:38;;;;;;;;;;;9.40;99.90;;;;;;20876948;28;19927;-76
2023/05/18 06:31:39;;;;;;;;;;;10.40;99.90;;;;;;20892088;28;20401;-75
2023/05/18 06:41:52;;;;;;;;;;;11.30;99.90;;;;;;20890811;28;19947;-75
2023/05/18 06:51:57;;;;;;;;;;;11.50;99.90;;;;;;20960364;28;19920;-75
2023/05/18 07:01:58;;;;;;;;;;;11.90;99.90;;;;;;20972288;28;19993;-76
2023/05/18 07:12:01;;;;;;;;;;;12.70;99.90;;;;;;20872216;28;19971;-75
2023/05/18 07:22:03;;;;;;;;;;;13.00;99.90;;;;;;20905896;28;19909;-76
2023/05/18 07:32:03;;;;;;;;;;;13.70;99.90;;;;;;20904794;28;19916;-76
2023/05/18 07:42:05;;;;;;;;;;;14.00;99.90;;;;;;20903977;28;20428;-75
2023/05/18 07:52:07;;;;;;;;;;;14.60;99.90;;;;;;20899779;28;19913;-75
2023/05/18 08:02:07;;;;;;;;;;;14.90;99.90;;;;;;20874576;28;20239;-75
2023/05/18 08:12:08;;;;;;;;;;;15.50;99.90;;;;;;20923221;28;19912;-76
2023/05/18 08:22:09;;;;;;;;;;;15.80;99.90;;;;;;20941901;28;19976;-77
2023/05/18 08:32:10;;;;;;;;;;;16.50;99.90;;;;;;20882351;28;20450;-75
2023/05/18 08:42:15;;;;;;;;;;;17.00;99.90;;;;;;20899790;28;20019;-75
2023/05/18 08:52:17;;;;;;;;;;;17.20;99.90;;;;;;20881761;28;20310;-74
2023/05/18 09:02:18;;;;;;;;;;;18.00;99.90;;;;;;20904234;28;20405;-75
2023/05/18 09:12:21;;;;;;;;;;;17.80;99.90;;;;;;20942332;28;19912;-74
2023/05/18 09:22:22;;;;;;;;;;;17.30;99.90;;;;;;20956264;28;19961;-75
2023/05/18 09:32:23;;;;;;;;;;;18.50;99.60;;;;;;20956082;28;19947;-74
2023/05/18 09:42:37;;;;;;;;;;;18.40;99.90;;;;;;20963776;28;20409;-74
2023/05/18 09:52:42;;;;;;;;;;;19.10;98.60;;;;;;20958814;28;19923;-76
2023/05/18 10:02:53;;;;;;;;;;;18.20;98.40;;;;;;20966921;28;19947;-78
2023/05/18 10:12:54;;;;;;;;;;;18.70;98.20;;;;;;20964776;28;20474;-78
2023/05/18 10:22:57;;;;;;;;;;;18.00;97.40;;;;;;20967881;28;19940;-79
2023/05/18 10:32:58;;;;;;;;;;;17.00;98.80;;;;;;20961222;28;19962;-78
2023/05/18 10:43:00;;;;;;;;;;;17.30;99.90;;;;;;20991786;28;19917;-80
2023/05/18 10:53:02;;;;;;;;;;;16.90;99.90;;;;;;20987714;28;19956;-78
2023/05/18 11:03:03;;;;;;;;;;;17.00;99.90;;;;;;20968282;28;19983;-80
2023/05/18 11:13:05;;;;;;;;;;;17.50;99.90;;;;;;20962412;28;19954;-81
2023/05/18 11:23:06;;;;;;;;;;;17.80;99.90;;;;;;20947778;28;19947;-79
2023/05/18 11:33:11;;;;;;;;;;;17.60;99.90;;;;;;20963472;28;20374;-81
2023/05/18 11:43:25;;;;;;;;;;;16.70;99.90;;;;;;20952728;28;19934;-80
2023/05/18 11:53:25;;;;;;;;;;;17.10;99.90;;;;;;20960135;28;20287;-79
2023/05/18 12:03:26;;;;;;;;;;;16.40;99.90;;;;;;20962190;28;19991;-77
2023/05/18 12:13:27;;;;;;;;;;;16.20;99.90;;;;;;20959204;28;20425;-77
2023/05/18 12:23:36;;;;;;;;;;;15.90;99.90;;;;;;20940646;28;19916;-77
2023/05/18 12:33:36;;;;;;;;;;;15.80;99.90;;;;;;20905971;28;20278;-76
2023/05/18 12:43:37;;;;;;;;;;;16.20;99.90;;;;;;20902789;28;19932;-76
2023/05/18 12:53:41;;;;;;;;;;;15.90;99.90;;;;;;20918355;28;19971;-76
2023/05/18 13:03:42;;;;;;;;;;;16.10;99.90;;;;;;20917584;28;19955;-74
2023/05/18 13:14:12;;;;;;;;;;;16.00;99.90;;;;;;20956457;28;19912;-76
2023/05/18 13:24:13;;;;;;;;;;;16.20;99.90;;;;;;20943665;28;19909;-75
2023/05/18 13:34:14;;;;;;;;;;;16.50;99.90;;;;;;20971864;28;20003;-77
2023/05/18 13:44:16;;;;;;;;;;;16.40;99.90;;;;;;20997173;28;19928;-76
2023/05/18 13:54:17;;;;;;;;;;;16.20;99.90;;;;;;20919030;28;20526;-76
2023/05/18 14:04:18;;;;;;;;;;;16.10;99.90;;;;;;20912649;28;19959;-76
2023/05/18 14:14:18;;;;;;;;;;;16.50;99.90;;;;;;20966451;28;19924;-76
2023/05/18 14:24:19;;;;;;;;;;;16.20;99.90;;;;;;20964506;28;20305;-75
2023/05/18 14:34:20;;;;;;;;;;;16.50;99.90;;;;;;20986493;28;19958;-76
2023/05/18 14:44:20;;;;;;;;;;;15.80;99.90;;;;;;20991980;28;20448;-77
2023/05/18 14:54:21;;;;;;;;;;;15.50;99.90;;;;;;20991062;28;19916;-76
2023/05/18 15:04:22;;;;;;;;;;;15.60;99.90;;;;;;20945686;28;19912;-76
2023/05/18 15:14:23;;;;;;;;;;;15.50;99.90;;;;;;20921673;28;19913;-76
2023/05/18 15:24:25;;;;;;;;;;;15.40;99.90;;;;;;20921418;28;19908;-76
2023/05/18 15:34:25;;;;;;;;;;;15.20;99.90;;;;;;20939347;28;19913;-76
2023/05/18 15:44:26;;;;;;;;;;;15.00;99.90;;;;;;20945787;28;19912;-76
2023/05/18 15:54:27;;;;;;;;;;;15.20;99.90;;;;;;20929540;28;19913;-75
2023/05/18 16:04:27;;;;;;;;;;;15.10;99.90;;;;;;20878397;28;19923;-75
2023/05/18 16:14:28;;;;;;;;;;;15.00;99.90;;;;;;20874448;28;20020;-76
2023/05/18 16:24:28;;;;;;;;;;;15.20;99.90;;;;;;20911736;28;20008;-76
2023/05/18 16:34:29;;;;;;;;;;;15.20;99.90;;;;;;20919235;28;19951;-75
2023/05/18 16:44:31;;;;;;;;;;;15.00;99.90;;;;;;20918426;28;20450;-75
2023/05/18 16:54:32;;;;;;;;;;;14.90;99.90;;;;;;20917441;28;20282;-75
2023/05/18 17:04:33;;;;;;;;;;;14.80;99.90;;;;;;20916741;28;20002;-76
2023/05/18 17:14:33;;;;;;;;;;;14.60;99.90;;;;;;20916168;28;19955;-75
2023/05/18 17:24:34;;;;;;;;;;;14.40;99.90;;;;;;20904337;28;19909;-75
2023/05/18 17:34:35;;;;;;;;;;;14.40;99.90;;;;;;20896143;28;19913;-75
2023/05/18 17:44:36;;;;;;;;;;;14.40;99.90;;;;;;20914168;28;19908;-74
2023/05/18 17:54:36;;;;;;;;;;;14.20;99.90;;;;;;20913101;28;19913;-75
2023/05/18 18:04:37;;;;;;;;;;;14.00;99.90;;;;;;20911928;28;20263;-75
2023/05/18 18:14:38;;;;;;;;;;;13.80;99.90;;;;;;20893550;28;19921;-74
2023/05/18 18:24:38;;;;;;;;;;;13.80;99.90;;;;;;20908457;28;19999;-75
2023/05/18 18:34:39;;;;;;;;;;;13.80;99.90;;;;;;20892380;28;20360;-75
2023/05/18 18:44:40;;;;;;;;;;;13.70;99.90;;;;;;20928912;28;20009;-74
2023/05/18 18:54:40;;;;;;;;;;;13.50;99.90;;;;;;20951359;28;20002;-75
2023/05/18 19:04:41;;;;;;;;;;;13.50;99.90;;;;;;20944306;28;20279;-75
2023/05/18 19:14:42;;;;;;;;;;;13.40;99.90;;;;;;20938803;28;19919;-74
2023/05/18 19:24:42;;;;;;;;;;;13.30;99.90;;;;;;20921221;28;19952;-77
2023/05/18 19:34:43;;;;;;;;;;;13.20;99.90;;;;;;20939014;28;19919;-77
2023/05/18 19:44:43;;;;;;;;;;;13.20;99.90;;;;;;20940225;28;19909;-77
2023/05/18 19:54:44;;;;;;;;;;;13.10;99.90;;;;;;20933652;28;19955;-77
2023/05/18 20:04:46;;;;;;;;;;;13.10;99.90;;;;;;20941524;28;19912;-76
2023/05/18 20:14:47;;;;;;;;;;;13.10;99.90;;;;;;20930788;28;19912;-76
2023/05/18 20:24:48;;;;;;;;;;;13.00;99.90;;;;;;20927888;28;19915;-76
2023/05/18 20:34:49;;;;;;;;;;;12.90;99.90;;;;;;20898646;28;19917;-76
2023/05/18 20:44:50;;;;;;;;;;;13.00;99.90;;;;;;20896468;28;20050;-76
2023/05/18 20:54:50;;;;;;;;;;;12.90;99.90;;;;;;20905528;28;19913;-76
2023/05/18 21:04:51;;;;;;;;;;;12.80;99.90;;;;;;20901342;28;19912;-76
2023/05/18 21:14:52;;;;;;;;;;;12.70;99.90;;;;;;20918723;28;20314;-76
2023/05/18 21:24:52;;;;;;;;;;;12.60;99.90;;;;;;20915771;28;19962;-76
2023/05/18 21:34:53;;;;;;;;;;;12.70;99.90;;;;;;20918334;28;19917;-76
2023/05/18 21:44:54;;;;;;;;;;;12.70;99.90;;;;;;20902882;28;20061;-76
2023/05/18 21:54:54;;;;;;;;;;;12.60;99.90;;;;;;20908982;28;19959;-76
2023/05/18 22:04:55;;;;;;;;;;;12.60;99.90;;;;;;20919782;28;20284;-76
2023/05/18 22:14:56;;;;;;;;;;;12.70;99.90;;;;;;20909424;28;19912;-76
2023/05/18 22:24:56;;;;;;;;;;;12.70;99.90;;;;;;20888271;28;19996;-76
2023/05/18 22:34:58;;;;;;;;;;;12.50;99.90;;;;;;20896222;28;19989;-76
2023/05/18 22:44:59;;;;;;;;;;;12.30;99.90;;;;;;20913182;28;19919;-76
2023/05/18 22:55:00;;;;;;;;;;;12.20;99.90;;;;;;20911951;28;19912;-76
2023/05/18 23:05:01;;;;;;;;;;;12.10;99.90;;;;;;20899080;28;20386;-75
2023/05/18 23:15:02;;;;;;;;;;;12.10;99.90;;;;;;20913330;28;19966;-75
2023/05/18 23:25:07;;;;;;;;;;;11.90;99.90;;;;;;20983845;28;19916;-75
2023/05/18 23:35:08;;;;;;;;;;;11.80;99.90;;;;;;20990772;28;19919;-75
2023/05/18 23:45:09;;;;;;;;;;;11.60;99.90;;;;;;20961556;28;19912;-75
2023/05/18 23:55:10;;;;;;;;;;;11.50;99.90;;;;;;20941887;28;20327;-75
